createdAt,value
2023-12-01T00:02:57.582Z,30.27
2023-12-01T00:08:00.545Z,30.11
2023-12-01T00:13:04.735Z,30.26
2023-12-01T00:18:07.701Z,30.20
2023-12-01T00:23:10.811Z,30.20
2023-12-01T00:28:15.171Z,30.39
2023-12-01T00:33:19.319Z,30.27
2023-12-01T00:38:22.258Z,30.29
2023-12-01T00:43:26.952Z,30.22
2023-12-01T00:48:30.876Z,30.29
2023-12-01T00:53:36.504Z,30.31
2023-12-01T00:58:40.796Z,30.40
2023-12-01T01:03:43.754Z,30.36
2023-12-01T01:08:46.688Z,30.23
2023-12-01T01:13:51.009Z,30.44
2023-12-01T01:18:53.930Z,30.42
2023-12-01T01:23:56.820Z,30.45
2023-12-01T01:29:01.486Z,30.59
2023-12-01T01:34:04.337Z,30.47
2023-12-01T01:39:08.244Z,30.55
2023-12-01T01:44:12.463Z,30.54
2023-12-01T01:49:15.534Z,30.42
2023-12-01T01:54:20.096Z,30.49
2023-12-01T01:59:24.314Z,30.44
2023-12-01T02:04:27.344Z,30.56
2023-12-01T02:09:34.327Z,30.58
2023-12-01T02:14:42.002Z,30.64
2023-12-01T02:19:44.937Z,30.72
2023-12-01T02:24:49.223Z,30.57
2023-12-01T02:29:52.065Z,30.67
2023-12-01T02:34:54.890Z,30.61
2023-12-01T02:39:59.207Z,30.73
2023-12-01T02:45:02.142Z,30.73
2023-12-01T02:50:05.692Z,30.66
2023-12-01T02:55:14.701Z,30.81
2023-12-01T03:00:18.659Z,30.76
2023-12-01T03:05:22.477Z,30.73
2023-12-01T03:10:26.885Z,30.78
2023-12-01T03:15:30.427Z,30.89
2023-12-01T03:20:34.351Z,30.92
2023-12-01T03:25:38.836Z,30.87
2023-12-01T03:30:41.802Z,30.84
2023-12-01T03:35:44.648Z,30.99
2023-12-01T03:40:48.848Z,31.15
2023-12-01T03:45:51.920Z,31.09
2023-12-01T03:50:54.862Z,31.14
2023-12-01T03:55:59.309Z,30.96
2023-12-01T04:01:06.450Z,30.89
2023-12-01T04:06:09.548Z,30.94
2023-12-01T04:11:13.789Z,31.08
2023-12-01T04:16:17.193Z,30.92
2023-12-01T04:21:20.076Z,30.95
2023-12-01T04:26:25.503Z,31.04
2023-12-01T04:31:28.544Z,31.18
2023-12-01T04:36:31.516Z,30.96
2023-12-01T04:41:35.688Z,30.92
2023-12-01T04:46:38.630Z,31.15
2023-12-01T04:51:41.656Z,30.96
2023-12-01T04:56:46.109Z,30.93
2023-12-01T05:01:48.998Z,31.11
2023-12-01T05:06:52.023Z,31.12
2023-12-01T05:11:56.279Z,31.15
2023-12-01T05:16:59.211Z,31.16
2023-12-01T05:22:02.150Z,31.19
2023-12-01T05:27:09.196Z,31.27
2023-12-01T05:32:12.137Z,31.28
2023-12-01T05:37:15.037Z,31.29
2023-12-01T05:42:19.514Z,31.09
2023-12-01T05:47:23.975Z,31.11
2023-12-01T05:52:26.863Z,31.04
2023-12-01T05:57:32.974Z,31.12
2023-12-01T06:02:35.883Z,31.30
2023-12-01T06:07:38.872Z,31.67
2023-12-01T06:12:43.277Z,31.32
2023-12-01T06:17:48.900Z,31.58
2023-12-01T06:22:53.476Z,31.49
2023-12-01T06:28:00.807Z,31.51
2023-12-01T06:33:05.047Z,31.75
2023-12-01T06:38:08.910Z,31.49
2023-12-01T06:43:13.747Z,31.66
2023-12-01T06:48:16.656Z,31.55
2023-12-01T06:53:20.400Z,31.45
2023-12-01T06:58:24.607Z,31.64
2023-12-01T07:03:31.092Z,31.61
2023-12-01T07:08:34.019Z,31.84
2023-12-01T07:13:38.787Z,31.83
2023-12-01T07:18:41.743Z,31.72
2023-12-01T07:23:45.579Z,31.61
2023-12-01T07:28:49.866Z,31.64
2023-12-01T07:33:52.800Z,31.53
2023-12-01T07:38:55.820Z,31.56
2023-12-01T07:44:01.478Z,31.51
2023-12-01T07:49:09.216Z,31.76
2023-12-01T07:54:12.680Z,31.82
2023-12-01T07:59:17.036Z,31.63
2023-12-01T08:04:20.264Z,32.80
2023-12-01T08:09:23.212Z,33.70
2023-12-01T08:14:27.578Z,33.88
2023-12-01T08:19:30.644Z,34.79
2023-12-01T08:24:33.968Z,35.02
2023-12-01T08:29:38.310Z,34.97
2023-12-01T08:34:41.203Z,34.64
2023-12-01T08:39:45.267Z,35.14
2023-12-01T08:44:49.601Z,35.11
2023-12-01T08:49:55.393Z,34.66
2023-12-01T08:55:00.044Z,34.59
2023-12-01T09:00:04.579Z,34.57
2023-12-01T09:05:10.525Z,34.40
2023-12-01T09:10:13.483Z,34.34
2023-12-01T09:15:18.094Z,34.43
2023-12-01T09:20:21.347Z,34.02
2023-12-01T09:25:25.094Z,34.12
2023-12-01T09:30:30.514Z,34.07
2023-12-01T09:35:54.796Z,34.14
2023-12-01T09:40:56.513Z,34.92
2023-12-01T09:46:00.962Z,34.88
2023-12-01T09:51:05.213Z,35.15
2023-12-01T09:56:11.440Z,35.36
2023-12-01T10:01:16.918Z,35.26
2023-12-01T10:06:20.264Z,35.60
2023-12-01T10:11:26.885Z,36.02
2023-12-01T10:16:35.980Z,35.48
2023-12-01T10:21:43.585Z,35.32
2023-12-01T10:26:47.284Z,35.39
2023-12-01T10:31:51.749Z,34.93
2023-12-01T10:36:55.043Z,34.84
2023-12-01T10:42:03.680Z,34.80
2023-12-01T10:47:13.009Z,34.80
2023-12-01T10:52:17.439Z,34.86
2023-12-01T10:57:29.382Z,35.09
2023-12-01T11:02:39.382Z,34.81
2023-12-01T11:07:56.470Z,35.06
2023-12-01T11:13:10.887Z,35.08
2023-12-01T11:18:15.212Z,35.32
2023-12-01T11:23:26.272Z,35.32
2023-12-01T11:28:41.973Z,35.32
2023-12-01T11:33:49.204Z,35.07
2023-12-01T11:39:25.202Z,35.21
2023-12-01T11:44:30.947Z,35.19
2023-12-01T11:49:36.690Z,35.13
2023-12-01T11:54:39.843Z,35.11
2023-12-01T11:59:42.794Z,35.08
2023-12-01T12:04:48.918Z,34.84
2023-12-01T12:09:52.028Z,34.97
2023-12-01T12:14:56.728Z,34.81
2023-12-01T12:20:09.259Z,34.79
2023-12-01T12:25:17.992Z,34.65
2023-12-01T12:30:21.099Z,34.69
2023-12-01T12:35:26.216Z,34.61
2023-12-01T12:40:34.592Z,34.62
2023-12-01T12:45:37.623Z,34.56
2023-12-01T12:50:42.757Z,34.58
2023-12-01T12:55:47.060Z,34.46
2023-12-01T13:00:49.982Z,34.34
2023-12-01T13:05:54.275Z,34.10
2023-12-01T13:10:57.152Z,34.56
2023-12-01T13:16:00.099Z,35.25
2023-12-01T13:21:05.695Z,36.17
2023-12-01T13:26:09.135Z,35.27
2023-12-01T13:31:12.158Z,34.53
2023-12-01T13:36:16.409Z,34.74
2023-12-01T13:41:19.432Z,34.85
2023-12-01T13:46:22.329Z,34.22
2023-12-01T13:51:26.886Z,34.36
2023-12-01T13:56:30.389Z,33.57
2023-12-01T14:01:33.364Z,33.81
2023-12-01T14:06:37.646Z,33.44
2023-12-01T14:11:40.629Z,33.21
2023-12-01T14:16:43.556Z,32.90
2023-12-01T14:21:47.878Z,33.43
2023-12-01T14:26:50.812Z,33.40
2023-12-01T14:31:54.417Z,33.28
2023-12-01T14:37:00.141Z,33.34
2023-12-01T14:42:03.287Z,33.06
2023-12-01T14:47:06.402Z,32.75
2023-12-01T14:52:10.631Z,32.93
2023-12-01T14:57:13.568Z,32.47
2023-12-01T15:02:16.500Z,32.73
2023-12-01T15:07:20.698Z,32.62
2023-12-01T15:12:25.781Z,32.58
2023-12-01T15:17:28.912Z,32.37
2023-12-01T15:22:33.106Z,33.73
2023-12-01T15:27:36.575Z,32.54
2023-12-01T15:32:39.438Z,32.61
2023-12-01T15:37:43.932Z,32.61
2023-12-01T15:42:46.793Z,32.25
2023-12-01T15:47:49.764Z,31.96
2023-12-01T15:52:57.309Z,32.07
2023-12-01T15:58:00.215Z,32.22
2023-12-01T16:03:03.678Z,31.75
2023-12-01T16:08:08.225Z,32.22
2023-12-01T16:13:11.167Z,31.66
2023-12-01T16:18:14.259Z,31.77
2023-12-01T16:23:18.633Z,31.36
2023-12-01T16:28:24.293Z,31.45
2023-12-01T16:33:28.501Z,31.50
2023-12-01T16:38:32.776Z,31.36
2023-12-01T16:43:35.645Z,31.42
2023-12-01T16:48:38.589Z,31.31
2023-12-01T16:53:44.640Z,31.39
2023-12-01T16:58:47.601Z,31.51
2023-12-01T17:03:50.931Z,31.45
2023-12-01T17:08:58.319Z,31.18
2023-12-01T17:14:03.494Z,31.35
2023-12-01T17:19:06.563Z,31.28
2023-12-01T17:24:11.376Z,31.49
2023-12-01T17:29:18.920Z,31.26
2023-12-01T17:34:22.491Z,31.34
2023-12-01T17:39:26.766Z,31.32
2023-12-01T17:44:29.676Z,31.24
2023-12-01T17:49:32.614Z,31.33
2023-12-01T17:54:38.788Z,31.20
2023-12-01T17:59:42.062Z,31.17
2023-12-01T18:04:45.513Z,31.25
2023-12-01T18:09:50.087Z,31.17
2023-12-01T18:14:53.466Z,31.05
2023-12-01T18:19:56.511Z,31.25
2023-12-01T18:25:00.718Z,31.17
2023-12-01T18:30:05.020Z,31.08
2023-12-01T18:35:09.014Z,31.47
2023-12-01T18:40:14.251Z,31.20
2023-12-01T18:45:17.309Z,31.32
2023-12-01T18:50:20.456Z,31.37
2023-12-01T18:55:25.255Z,31.31
2023-12-01T19:00:28.287Z,31.27
2023-12-01T19:05:31.889Z,31.44
2023-12-01T19:10:36.342Z,31.33
2023-12-01T19:15:39.245Z,31.35
2023-12-01T19:20:42.760Z,31.13
2023-12-01T19:25:46.932Z,31.34
2023-12-01T19:30:49.761Z,31.16
2023-12-01T19:35:52.700Z,31.26
2023-12-01T19:40:56.972Z,31.24
2023-12-01T19:46:00.920Z,31.25
2023-12-01T19:51:03.983Z,31.23
2023-12-01T19:56:12.773Z,31.08
2023-12-01T20:01:15.656Z,31.08
2023-12-01T20:06:18.633Z,31.13
2023-12-01T20:11:22.869Z,31.04
2023-12-01T20:16:26.720Z,30.97
2023-12-01T20:21:32.274Z,31.10
2023-12-01T20:26:39.622Z,30.92
2023-12-01T20:31:43.932Z,30.85
2023-12-01T20:36:46.828Z,30.96
2023-12-01T20:41:51.130Z,30.93
2023-12-01T20:46:56.957Z,31.04
2023-12-01T20:52:03.834Z,30.91
2023-12-01T20:57:08.302Z,30.90
2023-12-01T21:02:11.136Z,30.90
2023-12-01T21:07:14.440Z,30.92
2023-12-01T21:12:18.794Z,30.78
2023-12-01T21:17:22.412Z,30.77
2023-12-01T21:22:25.839Z,30.83
2023-12-01T21:27:31.994Z,30.76
2023-12-01T21:32:37.905Z,30.80
2023-12-01T21:37:43.121Z,30.80
2023-12-01T21:42:47.388Z,30.82
2023-12-01T21:47:51.178Z,30.85
2023-12-01T21:52:54.069Z,30.73
2023-12-01T21:57:59.620Z,30.88
2023-12-01T22:03:05.336Z,30.91
2023-12-01T22:08:08.825Z,30.81
2023-12-01T22:13:13.027Z,30.80
2023-12-01T22:18:15.928Z,30.82
2023-12-01T22:23:19.185Z,30.61
2023-12-01T22:28:25.111Z,30.92
2023-12-01T22:33:28.018Z,30.80
2023-12-01T22:38:30.938Z,30.62
2023-12-01T22:43:35.172Z,30.76
2023-12-01T22:48:38.217Z,30.85
2023-12-01T22:53:41.419Z,30.76
2023-12-01T22:58:45.627Z,30.70
2023-12-01T23:03:50.152Z,30.73
2023-12-01T23:08:56.015Z,30.59
2023-12-01T23:14:00.989Z,30.73
2023-12-01T23:19:04.357Z,30.63
2023-12-01T23:24:09.416Z,30.66
2023-12-01T23:29:14.100Z,30.64
2023-12-01T23:34:17.287Z,30.58
2023-12-01T23:39:21.001Z,30.60
2023-12-01T23:44:25.247Z,30.81
2023-12-01T23:49:28.206Z,30.67
2023-12-01T23:54:31.369Z,30.62
2023-12-01T23:59:35.641Z,30.71
